Time;durP1;ratioP1;P1;durP2;ratioP2;P2;SDS_P1;SDS_P2;PMS_P1;PMS_P2;Temp;Humidity;BMP_temperature;BMP_pressure;BME280_temperature;BME280_humidity;BME280_pressure;Samples;Min_cycle;Max_cycle;Signal;HPM_P1;HPM_P2
2021/12/27 00:00:34;;;;;;;3.53;1.30;;;22.80;89.30;;;;;;5127841;27;20524;-83
2021/12/27 00:03:02;;;;;;;4.38;1.38;;;22.50;90.30;;;;;;5127629;27;20378;-85
2021/12/27 00:05:31;;;;;;;4.03;1.30;;;22.10;90.90;;;;;;5127282;27;20383;-84
2021/12/27 00:07:58;;;;;;;3.17;1.20;;;22.30;90.40;;;;;;5127149;27;20381;-85
2021/12/27 00:10:30;;;;;;;4.25;1.50;;;22.80;88.30;;;;;;5127071;27;20450;-85
2021/12/27 00:12:58;;;;;;;5.72;1.30;;;23.20;85.80;;;;;;5127545;27;20377;-85
2021/12/27 00:15:25;;;;;;;4.65;1.38;;;23.50;84.20;;;;;;5127164;27;20464;-85
2021/12/27 00:17:53;;;;;;;5.95;1.40;;;23.60;82.70;;;;;;5127327;27;20397;-85
2021/12/27 00:20:21;;;;;;;5.70;1.38;;;22.90;86.40;;;;;;5127212;27;20415;-86
2021/12/27 00:22:49;;;;;;;3.60;1.20;;;22.90;85.30;;;;;;5127332;27;20376;-85
2021/12/27 00:25:17;;;;;;;6.37;1.50;;;22.60;85.90;;;;;;5127217;27;20392;-85
2021/12/27 00:27:45;;;;;;;5.97;1.50;;;22.40;88.90;;;;;;5127583;27;20765;-85
2021/12/27 00:30:13;;;;;;;8.80;1.60;;;22.70;86.90;;;;;;5126730;27;20483;-85
2021/12/27 00:32:43;;;;;;;4.60;1.42;;;23.30;83.30;;;;;;5127873;27;20388;-85
2021/12/27 00:35:12;;;;;;;5.10;1.63;;;23.70;82.00;;;;;;5126338;28;20389;-85
2021/12/27 00:37:39;;;;;;;7.07;1.90;;;23.80;79.00;;;;;;5109993;28;20473;-86
2021/12/27 00:40:08;;;;;;;4.53;1.50;;;23.90;77.80;;;;;;5126980;28;20945;-85
2021/12/27 00:42:36;;;;;;;5.23;1.50;;;23.90;76.40;;;;;;5127407;28;20377;-86
2021/12/27 00:45:03;;;;;;;7.05;1.70;;;23.80;76.60;;;;;;5107490;27;20505;-85
2021/12/27 00:47:31;;;;;;;6.72;1.70;;;23.70;76.20;;;;;;5126446;27;20398;-86
2021/12/27 00:49:58;;;;;;;5.13;1.60;;;23.60;78.40;;;;;;5124941;27;20396;-85
2021/12/27 00:52:26;;;;;;;5.40;1.60;;;23.70;77.30;;;;;;5126857;28;20388;-86
2021/12/27 00:54:53;;;;;;;5.93;1.90;;;23.30;79.40;;;;;;5125744;28;20399;-84
2021/12/27 00:57:20;;;;;;;6.78;2.10;;;23.30;79.90;;;;;;5127469;28;20434;-85
2021/12/27 00:59:47;;;;;;;7.75;1.90;;;23.40;78.50;;;;;;5126691;27;20407;-84
2021/12/27 01:02:14;;;;;;;6.53;1.85;;;23.60;79.40;;;;;;5127539;27;20740;-83
2021/12/27 01:04:41;;;;;;;6.90;1.85;;;23.90;76.50;;;;;;5108353;28;20456;-86
2021/12/27 01:07:08;;;;;;;6.70;1.70;;;24.20;74.90;;;;;;5127186;27;20372;-85
2021/12/27 01:09:50;;;;;;;6.32;1.90;;;24.30;73.10;;;;;;5108365;28;20385;-85
2021/12/27 01:15:21;;;;;;;9.90;1.88;;;24.70;70.60;;;;;;5126914;27;20377;-85
2021/12/27 01:17:50;;;;;;;7.25;2.08;;;24.80;69.90;;;;;;5127106;27;20444;-86
2021/12/27 01:20:24;;;;;;;6.35;1.85;;;23.80;74.60;;;;;;5129097;27;20899;-84
2021/12/27 01:22:54;;;;;;;5.45;2.00;;;23.80;75.10;;;;;;5130887;27;20407;-83
2021/12/27 01:25:21;;;;;;;7.85;1.90;;;23.90;74.30;;;;;;5130288;27;20455;-85
2021/12/27 01:27:51;;;;;;;8.63;2.10;;;24.10;73.00;;;;;;5130622;27;20380;-85
2021/12/27 01:30:19;;;;;;;7.20;1.92;;;23.70;74.30;;;;;;5129719;27;20385;-85
2021/12/27 01:32:52;;;;;;;7.53;2.00;;;24.00;73.10;;;;;;5130155;27;20381;-85
2021/12/27 01:35:20;;;;;;;7.15;2.42;;;23.90;74.20;;;;;;5129585;27;20384;-84
2021/12/27 01:37:51;;;;;;;8.90;2.53;;;24.20;73.00;;;;;;5130016;27;20369;-84
2021/12/27 01:40:21;;;;;;;7.53;2.28;;;24.50;72.30;;;;;;5130082;27;20946;-83
2021/12/27 01:43:14;;;;;;;6.95;2.20;;;24.90;70.50;;;;;;5111802;27;20438;-84
2021/12/27 01:45:47;;;;;;;7.80;2.40;;;25.10;67.80;;;;;;5129598;27;20496;-84
2021/12/27 01:48:19;;;;;;;8.15;2.45;;;24.60;69.50;;;;;;5111263;27;20737;-85
2021/12/27 01:50:47;;;;;;;9.98;2.10;;;24.70;69.30;;;;;;5130212;27;20384;-85
2021/12/27 01:53:17;;;;;;;9.57;2.30;;;24.70;70.20;;;;;;5130358;27;20376;-86
2021/12/27 01:55:44;;;;;;;8.75;2.17;;;24.50;70.20;;;;;;5130092;27;20464;-87
2021/12/27 01:58:12;;;;;;;7.28;2.30;;;24.30;70.50;;;;;;5111000;27;20412;-86
2021/12/27 02:00:42;;;;;;;7.77;2.17;;;24.60;69.70;;;;;;5129679;27;20921;-86
2021/12/27 02:03:09;;;;;;;9.27;2.38;;;24.50;70.00;;;;;;5130524;27;20361;-85
2021/12/27 02:05:36;;;;;;;8.50;2.22;;;24.50;68.80;;;;;;5130039;27;20389;-86
2021/12/27 02:08:05;;;;;;;8.05;2.40;;;24.30;69.80;;;;;;5133189;27;20693;-85
2021/12/27 02:10:32;;;;;;;9.20;2.47;;;24.10;70.00;;;;;;5129720;27;20468;-86
2021/12/27 02:13:00;;;;;;;9.20;2.50;;;23.90;70.90;;;;;;5129971;27;20369;-86
2021/12/27 02:15:28;;;;;;;8.20;2.47;;;24.00;70.10;;;;;;5129629;27;20395;-86
2021/12/27 02:17:55;;;;;;;7.57;2.38;;;24.10;69.30;;;;;;5130194;27;20353;-84
2021/12/27 02:20:31;;;;;;;7.23;2.30;;;24.00;70.60;;;;;;5129481;27;20416;-84
2021/12/27 02:23:01;;;;;;;8.88;2.28;;;23.70;69.50;;;;;;5129349;27;20379;-86
2021/12/27 02:25:30;;;;;;;7.65;2.35;;;24.20;68.80;;;;;;5129754;27;20452;-84
2021/12/27 02:28:05;;;;;;;8.00;2.30;;;24.20;68.20;;;;;;5129513;27;20365;-84
2021/12/27 02:30:33;;;;;;;8.82;2.33;;;24.20;68.30;;;;;;5129297;27;20434;-85
2021/12/27 02:33:05;;;;;;;8.23;2.30;;;24.40;69.00;;;;;;5129309;27;20388;-85
2021/12/27 02:35:45;;;;;;;10.57;2.50;;;24.60;67.00;;;;;;5129100;27;20495;-85
2021/12/27 02:38:18;;;;;;;8.65;2.38;;;24.70;65.70;;;;;;5129579;27;20404;-85
2021/12/27 02:40:46;;;;;;;8.07;2.13;;;24.60;66.90;;;;;;5129242;27;20783;-85
2021/12/27 02:43:17;;;;;;;7.75;2.28;;;24.70;65.70;;;;;;5129371;27;20408;-88
2021/12/27 02:45:51;;;;;;;8.43;2.30;;;24.70;65.40;;;;;;5128723;27;20389;-85
2021/12/27 02:48:24;;;;;;;6.35;2.20;;;24.70;64.60;;;;;;5128797;27;20387;-85
2021/12/27 02:50:53;;;;;;;7.25;2.42;;;24.80;64.50;;;;;;5129317;27;20444;-85
2021/12/27 02:53:21;;;;;;;9.48;2.30;;;24.80;65.20;;;;;;5129186;27;20396;-86
2021/12/27 02:55:50;;;;;;;8.13;2.67;;;24.40;65.50;;;;;;5129061;27;20399;-85
2021/12/27 02:58:17;;;;;;;6.25;2.10;;;24.30;65.30;;;;;;5128948;27;20380;-85
2021/12/27 03:00:55;;;;;;;8.82;2.50;;;24.30;64.80;;;;;;5128838;27;20396;-85
2021/12/27 03:03:22;;;;;;;6.50;2.37;;;24.40;64.00;;;;;;5128994;27;20393;-86
2021/12/27 03:05:49;;;;;;;6.57;2.40;;;24.50;65.40;;;;;;5128751;27;20478;-86
2021/12/27 03:08:18;;;;;;;7.38;2.22;;;24.60;64.70;;;;;;5128779;27;20361;-85
2021/12/27 03:10:51;;;;;;;9.93;2.30;;;24.60;64.70;;;;;;5128477;27;20417;-86
2021/12/27 03:13:20;;;;;;;8.40;2.50;;;24.70;63.60;;;;;;5128763;27;20409;-85
2021/12/27 03:15:55;;;;;;;7.65;2.30;;;24.80;62.40;;;;;;5128467;27;20456;-85
2021/12/27 03:18:23;;;;;;;8.27;2.20;;;24.70;63.00;;;;;;5128732;27;20401;-84
2021/12/27 03:20:51;;;;;;;6.70;2.08;;;24.60;62.60;;;;;;5127989;27;20397;-83
2021/12/27 03:23:18;;;;;;;8.95;2.50;;;24.50;63.00;;;;;;5128200;27;20478;-85
2021/12/27 03:25:45;;;;;;;8.48;2.53;;;24.60;62.90;;;;;;5128061;27;20391;-83
2021/12/27 03:28:13;;;;;;;7.35;2.30;;;24.70;63.20;;;;;;5128137;27;20377;-84
2021/12/27 03:30:40;;;;;;;8.30;2.45;;;24.40;64.70;;;;;;5109431;27;20387;-84
2021/12/27 03:33:09;;;;;;;10.75;2.70;;;24.40;65.80;;;;;;5128349;27;20357;-84
2021/12/27 03:35:39;;;;;;;10.25;2.63;;;24.50;65.10;;;;;;5128336;27;20471;-84
2021/12/27 03:38:09;;;;;;;11.10;2.53;;;24.40;65.40;;;;;;5128145;27;20751;-84
2021/12/27 03:40:39;;;;;;;8.43;2.50;;;24.40;66.60;;;;;;5128013;27;20408;-83
2021/12/27 03:43:06;;;;;;;9.57;2.53;;;24.40;67.40;;;;;;5127438;27;20381;-84
2021/12/27 03:45:38;;;;;;;9.30;2.78;;;24.40;67.10;;;;;;5127981;27;20733;-83
2021/12/27 03:48:07;;;;;;;10.85;2.78;;;24.40;67.40;;;;;;5127707;27;20927;-84
2021/12/27 03:50:34;;;;;;;11.63;2.63;;;24.30;67.40;;;;;;5127632;27;20388;-85
2021/12/27 03:53:02;;;;;;;8.63;2.55;;;24.10;69.10;;;;;;5127921;27;20436;-83
2021/12/27 03:55:29;;;;;;;9.77;2.55;;;24.00;69.60;;;;;;5127880;27;20408;-83
2021/12/27 03:57:57;;;;;;;12.40;2.80;;;23.90;70.20;;;;;;5127998;27;20381;-84
2021/12/27 04:00:32;;;;;;;10.20;2.88;;;23.60;71.40;;;;;;5127761;27;20439;-85
2021/12/27 04:03:01;;;;;;;9.77;2.65;;;23.50;72.10;;;;;;5127605;27;20372;-83
2021/12/27 04:05:29;;;;;;;9.63;2.28;;;23.50;72.30;;;;;;5127395;27;20399;-83
2021/12/27 04:08:01;;;;;;;8.63;2.17;;;23.50;72.30;;;;;;5127501;27;20449;-84
2021/12/27 04:10:30;;;;;;;12.15;2.63;;;23.70;72.00;;;;;;5109116;27;20393;-83
2021/12/27 04:12:57;;;;;;;8.57;2.42;;;23.70;71.30;;;;;;5127491;27;20896;-83
2021/12/27 04:15:24;;;;;;;8.23;2.42;;;23.90;71.40;;;;;;5127178;27;20471;-84
2021/12/27 04:17:51;;;;;;;8.93;2.10;;;24.20;72.70;;;;;;5126631;27;20376;-84
2021/12/27 04:20:21;;;;;;;7.43;2.13;;;24.40;70.30;;;;;;5127288;27;20393;-84
2021/12/27 04:22:49;;;;;;;6.90;2.00;;;24.50;69.20;;;;;;5127677;27;20764;-83
2021/12/27 04:25:17;;;;;;;8.77;2.10;;;24.60;68.40;;;;;;5126547;27;20456;-83
2021/12/27 04:27:45;;;;;;;5.00;1.42;;;24.40;69.00;;;;;;5127060;27;20385;-84
2021/12/27 04:30:13;;;;;;;6.53;1.95;;;24.30;68.60;;;;;;5127248;27;20481;-84
2021/12/27 04:32:40;;;;;;;7.63;1.83;;;24.10;69.20;;;;;;5127469;28;20391;-84
2021/12/27 04:35:08;;;;;;;6.93;1.88;;;23.90;69.90;;;;;;5108542;28;21059;-84
2021/12/27 04:37:35;;;;;;;6.93;1.70;;;23.70;69.90;;;;;;5127343;27;20418;-83
2021/12/27 04:40:06;;;;;;;6.25;1.98;;;23.70;70.70;;;;;;5126788;27;20454;-84
2021/12/27 04:42:34;;;;;;;8.18;1.88;;;23.70;70.50;;;;;;5127046;27;20397;-84
2021/12/27 04:45:03;;;;;;;5.60;1.80;;;24.10;69.70;;;;;;5127047;28;20421;-83
2021/12/27 04:47:30;;;;;;;6.68;1.70;;;24.60;68.20;;;;;;5127284;27;20463;-84
2021/12/27 04:49:57;;;;;;;3.53;1.38;;;25.40;66.10;;;;;;5108838;28;20396;-83
2021/12/27 04:52:24;;;;;;;4.72;1.60;;;26.90;61.90;;;;;;5126980;28;20384;-83
2021/12/27 04:54:51;;;;;;;5.28;1.48;;;28.30;57.50;;;;;;5128731;27;20385;-83
2021/12/27 04:57:19;;;;;;;4.60;1.33;;;28.90;55.90;;;;;;5130215;27;20377;-83
2021/12/27 04:59:46;;;;;;;4.10;1.20;;;29.70;56.40;;;;;;5130898;27;20377;-84
2021/12/27 05:02:12;;;;;;;2.60;1.00;;;30.30;54.10;;;;;;5095631;28;20823;-84
2021/12/27 05:04:40;;;;;;;2.38;1.00;;;29.50;52.50;;;;;;5124795;27;20398;-83
2021/12/27 05:07:07;;;;;;;2.17;0.93;;;28.60;54.20;;;;;;5130926;27;20438;-83
2021/12/27 05:09:34;;;;;;;4.90;0.80;;;27.50;57.00;;;;;;5130369;27;20399;-84
2021/12/27 05:12:01;;;;;;;2.47;0.90;;;26.80;60.40;;;;;;5130983;27;20389;-84
2021/12/27 05:14:28;;;;;;;1.52;0.70;;;26.90;62.20;;;;;;5130980;27;20377;-84
2021/12/27 05:16:55;;;;;;;3.10;0.75;;;26.90;62.20;;;;;;5131257;27;20385;-84
2021/12/27 05:19:22;;;;;;;2.50;0.80;;;26.80;62.70;;;;;;5131148;27;20377;-85
2021/12/27 05:21:49;;;;;;;3.85;0.60;;;26.50;64.20;;;;;;5131084;27;20473;-82
2021/12/27 05:24:18;;;;;;;0.73;0.45;;;25.80;66.50;;;;;;5130501;27;20840;-83
2021/12/27 05:26:45;;;;;;;1.35;0.40;;;25.20;69.70;;;;;;5130540;27;20377;-82
2021/12/27 05:29:12;;;;;;;2.10;0.50;;;24.50;73.50;;;;;;5129944;27;20383;-82
2021/12/27 05:31:40;;;;;;;1.50;0.60;;;24.00;76.70;;;;;;5130636;27;20387;-84
2021/12/27 05:34:07;;;;;;;0.93;0.40;;;23.70;79.50;;;;;;5112096;27;20748;-84
2021/12/27 05:36:34;;;;;;;0.82;0.50;;;23.50;81.00;;;;;;5130539;27;20381;-84
2021/12/27 05:39:01;;;;;;;2.00;0.52;;;23.80;81.60;;;;;;5129946;27;20369;-83
2021/12/27 05:41:28;;;;;;;2.03;0.60;;;24.40;80.40;;;;;;5130233;27;20788;-83
2021/12/27 05:43:55;;;;;;;1.05;0.35;;;25.10;77.30;;;;;;5129932;27;20416;-83
2021/12/27 05:46:22;;;;;;;0.80;0.40;;;24.80;79.60;;;;;;5130102;27;20412;-85
2021/12/27 05:48:49;;;;;;;2.30;0.40;;;25.10;79.50;;;;;;5130283;27;20848;-84
2021/12/27 05:51:16;;;;;;;1.15;0.40;;;24.80;80.80;;;;;;5129543;27;20380;-84
2021/12/27 05:53:43;;;;;;;2.53;0.40;;;23.80;87.30;;;;;;5130185;27;20395;-84
2021/12/27 05:56:10;;;;;;;1.15;0.47;;;23.20;91.50;;;;;;5129868;27;20805;-85
2021/12/27 05:58:37;;;;;;;1.52;0.50;;;22.80;94.60;;;;;;5115820;27;20868;-83
2021/12/27 06:01:04;;;;;;;1.15;0.50;;;22.50;97.50;;;;;;5131963;27;20416;-87
2021/12/27 06:03:31;;;;;;;1.23;0.60;;;22.10;99.90;;;;;;5133200;27;20466;-84
2021/12/27 06:05:58;;;;;;;1.80;0.70;;;21.50;99.90;;;;;;5129503;27;20547;-84
2021/12/27 06:08:25;;;;;;;2.22;0.70;;;21.10;99.90;;;;;;5130103;27;20387;-85
2021/12/27 06:10:52;;;;;;;2.05;0.85;;;20.80;99.90;;;;;;5129766;27;20471;-85
2021/12/27 06:13:21;;;;;;;1.40;0.65;;;20.50;99.90;;;;;;5129848;27;20406;-87
2021/12/27 06:15:48;;;;;;;3.78;0.90;;;20.20;99.90;;;;;;5129609;27;20381;-87
2021/12/27 06:18:15;;;;;;;2.95;1.00;;;20.10;99.90;;;;;;5130107;27;20373;-86
2021/12/27 06:20:42;;;;;;;3.20;1.20;;;20.00;99.90;;;;;;5111242;27;20405;-85
2021/12/27 06:23:09;;;;;;;2.90;1.08;;;19.80;99.90;;;;;;5129260;27;20393;-85
2021/12/27 06:25:36;;;;;;;4.18;1.90;;;19.70;99.90;;;;;;5129438;27;20437;-87
2021/12/27 06:28:03;;;;;;;3.58;1.23;;;19.30;99.90;;;;;;5114496;27;20392;-86
2021/12/27 06:30:30;;;;;;;4.57;1.30;;;19.20;99.90;;;;;;5131388;27;20385;-87
2021/12/27 06:32:57;;;;;;;3.70;1.10;;;19.00;99.90;;;;;;5129208;27;20405;-86
2021/12/27 06:35:24;;;;;;;3.43;0.90;;;18.80;99.90;;;;;;5129234;27;20376;-86
2021/12/27 06:37:52;;;;;;;4.53;1.02;;;18.80;99.90;;;;;;5129172;27;20425;-86
2021/12/27 06:40:19;;;;;;;4.50;1.23;;;18.70;99.90;;;;;;5128950;27;20397;-87
2021/12/27 06:42:47;;;;;;;3.35;1.10;;;18.60;99.90;;;;;;5128579;27;20480;-86
2021/12/27 06:45:14;;;;;;;5.25;1.40;;;18.50;99.90;;;;;;5111564;27;20534;-88
2021/12/27 06:47:41;;;;;;;6.40;1.52;;;18.30;99.90;;;;;;5130936;27;20396;-88
2021/12/27 06:50:10;;;;;;;6.73;1.80;;;18.30;99.90;;;;;;5129058;27;20408;-87
2021/12/27 06:52:37;;;;;;;8.80;2.03;;;18.30;99.90;;;;;;5128350;27;20427;-87
2021/12/27 06:55:05;;;;;;;6.07;1.70;;;18.20;99.90;;;;;;5129146;27;20913;-86
2021/12/27 06:57:32;;;;;;;9.38;2.20;;;18.20;99.90;;;;;;5128594;27;20383;-86
2021/12/27 07:00:01;;;;;;;10.18;2.10;;;18.30;99.90;;;;;;5128527;27;20392;-86
2021/12/27 07:02:28;;;;;;;11.07;2.28;;;18.30;99.90;;;;;;5128340;27;20435;-88
2021/12/27 07:04:55;;;;;;;8.60;2.10;;;18.40;99.90;;;;;;5128919;27;20381;-87
2021/12/27 07:07:22;;;;;;;9.85;2.40;;;18.40;99.90;;;;;;5132215;27;20403;-88
2021/12/27 07:09:50;;;;;;;9.65;2.45;;;18.40;99.90;;;;;;5129688;27;20872;-93
2021/12/27 07:12:17;;;;;;;11.25;2.45;;;18.50;99.90;;;;;;5128367;27;20389;-85
2021/12/27 07:14:47;;;;;;;10.15;2.38;;;18.40;99.90;;;;;;5110130;27;20369;-85
2021/12/27 07:17:14;;;;;;;10.30;2.30;;;18.40;99.90;;;;;;5128089;27;20955;-87
2021/12/27 07:19:41;;;;;;;12.15;2.50;;;18.40;99.90;;;;;;5128628;27;20392;-87
2021/12/27 07:22:08;;;;;;;12.07;2.40;;;18.40;99.90;;;;;;5127956;27;20396;-86
2021/12/27 07:24:35;;;;;;;11.52;2.78;;;18.40;99.90;;;;;;5129609;27;20373;-84
2021/12/27 07:27:02;;;;;;;10.45;2.33;;;18.30;99.90;;;;;;5130619;27;20437;-86
2021/12/27 07:29:30;;;;;;;10.13;2.40;;;18.20;99.90;;;;;;5130526;27;20454;-92
2021/12/27 07:31:57;;;;;;;8.57;2.15;;;18.20;99.90;;;;;;5129922;27;20423;-86
2021/12/27 07:34:27;;;;;;;7.10;1.95;;;18.20;99.90;;;;;;5128014;27;20373;-93
2021/12/27 07:36:56;;;;;;;9.77;2.17;;;18.20;99.90;;;;;;5129307;27;20373;-89
2021/12/27 07:39:25;;;;;;;8.45;2.03;;;18.10;99.90;;;;;;5127351;27;20472;-86
2021/12/27 07:41:52;;;;;;;6.57;1.80;;;18.10;99.90;;;;;;5127815;27;20392;-86
2021/12/27 07:44:20;;;;;;;7.10;1.92;;;18.10;99.90;;;;;;5127565;27;20385;-85
2021/12/27 07:46:47;;;;;;;13.48;2.33;;;18.20;99.90;;;;;;5127912;27;20442;-84
2021/12/27 07:49:16;;;;;;;8.38;2.17;;;18.10;99.90;;;;;;5127580;27;20377;-87
2021/12/27 07:51:45;;;;;;;9.65;2.22;;;18.20;99.90;;;;;;5127755;27;20430;-85
2021/12/27 07:54:13;;;;;;;9.02;2.10;;;18.20;99.90;;;;;;5127299;27;20431;-84
2021/12/27 07:56:40;;;;;;;8.90;2.35;;;18.20;99.90;;;;;;5127788;27;20380;-84
2021/12/27 07:59:07;;;;;;;10.15;2.33;;;18.20;99.90;;;;;;5127381;27;20914;-84
2021/12/27 08:01:41;;;;;;;11.27;2.40;;;18.20;99.90;;;;;;5129477;27;20402;-85
2021/12/27 08:04:09;;;;;;;10.45;2.40;;;18.00;99.90;;;;;;5128833;27;20447;-84
2021/12/27 08:06:36;;;;;;;10.45;2.50;;;18.00;99.90;;;;;;5138173;27;20798;-87
2021/12/27 08:09:06;;;;;;;10.82;2.30;;;18.00;99.90;;;;;;5132179;27;20401;-86
2021/12/27 08:11:33;;;;;;;10.98;2.60;;;18.00;99.90;;;;;;5108654;27;20435;-87
2021/12/27 08:14:00;;;;;;;11.35;2.72;;;18.00;99.90;;;;;;5127345;27;20464;-85
2021/12/27 08:16:27;;;;;;;12.45;3.75;;;18.00;99.90;;;;;;5108862;27;20381;-86
2021/12/27 08:18:56;;;;;;;9.57;2.50;;;18.00;99.90;;;;;;5127160;27;20460;-81
2021/12/27 08:21:29;;;;;;;9.13;2.27;;;17.90;99.90;;;;;;5126945;27;20446;-85
2021/12/27 08:23:56;;;;;;;8.77;2.80;;;17.90;99.90;;;;;;5127183;27;20848;-86
2021/12/27 08:26:23;;;;;;;8.40;2.33;;;17.80;99.90;;;;;;5127670;27;20427;-83
2021/12/27 08:28:53;;;;;;;8.77;2.03;;;17.80;99.90;;;;;;5126625;27;20377;-84
2021/12/27 08:31:20;;;;;;;7.90;2.10;;;17.70;99.90;;;;;;5124662;27;20380;-85
2021/12/27 08:33:47;;;;;;;7.65;1.80;;;17.80;99.90;;;;;;5126765;27;20430;-84
2021/12/27 08:36:14;;;;;;;9.10;1.90;;;17.80;99.90;;;;;;5127497;28;20465;-85
2021/12/27 08:38:44;;;;;;;6.20;1.90;;;17.70;99.90;;;;;;5126558;27;20379;-85
2021/12/27 08:41:12;;;;;;;11.18;3.42;;;17.70;99.90;;;;;;5127274;27;20487;-84
2021/12/27 08:43:39;;;;;;;9.30;2.80;;;17.80;99.90;;;;;;5126645;28;20402;-84
2021/12/27 08:46:06;;;;;;;5.50;2.00;;;17.80;99.90;;;;;;5108612;28;20729;-85
2021/12/27 08:48:33;;;;;;;7.20;1.80;;;17.80;99.90;;;;;;5126874;27;20376;-86
2021/12/27 08:51:00;;;;;;;9.65;2.20;;;17.80;99.90;;;;;;5126541;28;20452;-86
2021/12/27 08:53:28;;;;;;;7.82;2.10;;;17.70;99.90;;;;;;5126668;27;20380;-84
2021/12/27 08:55:55;;;;;;;10.23;2.38;;;17.60;99.90;;;;;;5126618;28;20376;-85
2021/12/27 08:58:22;;;;;;;9.68;2.38;;;17.60;99.90;;;;;;5127518;27;20453;-86
2021/12/27 09:00:49;;;;;;;9.50;2.20;;;17.60;99.90;;;;;;5126668;27;20450;-84
2021/12/27 09:03:17;;;;;;;10.95;2.30;;;17.60;99.90;;;;;;5108299;27;20904;-86
2021/12/27 09:05:44;;;;;;;12.10;2.40;;;17.60;99.90;;;;;;5126304;27;20391;-84
2021/12/27 09:08:11;;;;;;;10.30;2.13;;;17.50;99.90;;;;;;5126502;27;20398;-85
2021/12/27 09:10:39;;;;;;;10.18;2.47;;;17.50;99.90;;;;;;5126381;27;20822;-84
2021/12/27 09:13:06;;;;;;;10.02;2.25;;;17.50;99.90;;;;;;5108424;28;20380;-83
2021/12/27 09:15:33;;;;;;;9.38;2.40;;;17.50;99.90;;;;;;5126635;27;20388;-82
2021/12/27 09:18:00;;;;;;;9.35;2.28;;;17.40;99.90;;;;;;5126994;28;20365;-82
2021/12/27 09:20:28;;;;;;;12.13;2.50;;;17.30;99.90;;;;;;5108046;28;20389;-82
2021/12/27 09:22:56;;;;;;;9.82;2.17;;;17.30;99.90;;;;;;5126704;27;20382;-83
2021/12/27 09:25:23;;;;;;;11.05;2.20;;;17.30;99.90;;;;;;5126417;28;20377;-83
2021/12/27 09:27:50;;;;;;;10.25;2.10;;;17.20;99.90;;;;;;5126587;27;20467;-82
2021/12/27 09:30:18;;;;;;;9.23;2.08;;;17.20;99.90;;;;;;5126263;27;20739;-83
2021/12/27 09:32:45;;;;;;;8.73;2.00;;;17.20;99.90;;;;;;5126115;27;20477;-83
2021/12/27 09:35:13;;;;;;;8.25;1.90;;;17.20;99.90;;;;;;5127006;27;20381;-83
2021/12/27 09:37:43;;;;;;;7.78;1.80;;;17.10;99.90;;;;;;5125901;28;20387;-82
2021/12/27 09:40:10;;;;;;;9.98;2.20;;;17.20;99.90;;;;;;5126552;27;20397;-82
2021/12/27 09:42:38;;;;;;;8.70;2.10;;;17.20;99.90;;;;;;5129772;27;20396;-83
2021/12/27 09:45:08;;;;;;;7.28;1.95;;;17.30;99.90;;;;;;5130211;27;20905;-86
2021/12/27 09:47:36;;;;;;;8.40;2.30;;;17.20;99.90;;;;;;5130014;27;20439;-83
2021/12/27 09:50:06;;;;;;;9.27;2.30;;;17.20;99.90;;;;;;5129166;27;20383;-83
2021/12/27 09:52:34;;;;;;;7.30;1.95;;;17.20;99.90;;;;;;5129434;27;20744;-83
2021/12/27 09:55:03;;;;;;;8.30;2.13;;;17.20;99.90;;;;;;5129203;27;20381;-83
2021/12/27 09:57:33;;;;;;;9.50;2.10;;;17.20;99.90;;;;;;5129848;27;20409;-83
2021/12/27 10:00:01;;;;;;;10.10;1.90;;;17.20;99.90;;;;;;5129507;27;20870;-83
2021/12/27 10:02:28;;;;;;;9.02;2.00;;;17.20;99.90;;;;;;5129415;27;20391;-82
2021/12/27 10:04:55;;;;;;;7.55;1.83;;;17.20;99.90;;;;;;5129785;27;20706;-84
2021/12/27 10:07:23;;;;;;;7.65;2.03;;;17.20;99.90;;;;;;5129838;27;20923;-84
2021/12/27 10:09:58;;;;;;;6.53;2.03;;;17.10;99.90;;;;;;5129281;27;20381;-83
2021/12/27 10:12:28;;;;;;;7.15;1.77;;;17.10;99.90;;;;;;5125951;27;20377;-86
2021/12/27 10:15:07;;;;;;;6.85;1.40;;;17.00;99.90;;;;;;5129282;27;20380;-84
2021/12/27 10:17:37;;;;;;;5.72;1.50;;;17.00;99.90;;;;;;5119705;27;20376;-84
2021/12/27 10:20:14;;;;;;;4.73;1.40;;;17.00;99.90;;;;;;5128611;27;20385;-84
2021/12/27 10:22:43;;;;;;;4.40;1.48;;;17.00;99.90;;;;;;5127916;27;20394;-84
2021/12/27 10:25:25;;;;;;;6.25;1.50;;;16.90;99.90;;;;;;5128791;27;20391;-84
2021/12/27 10:27:53;;;;;;;4.97;1.50;;;16.90;99.90;;;;;;5129375;27;20381;-84
2021/12/27 10:30:27;;;;;;;6.68;1.45;;;16.80;99.90;;;;;;5129249;27;20449;-83
2021/12/27 10:33:14;;;;;;;5.82;1.80;;;16.80;99.90;;;;;;5129361;27;20439;-84
2021/12/27 10:35:45;;;;;;;4.35;1.20;;;16.70;99.90;;;;;;5123558;27;20377;-84
2021/12/27 10:38:14;;;;;;;4.32;1.38;;;16.70;99.90;;;;;;5110810;27;20400;-85
2021/12/27 10:40:53;;;;;;;4.93;1.30;;;16.70;99.90;;;;;;5128971;27;20401;-83
2021/12/27 10:43:34;;;;;;;6.05;1.42;;;16.70;99.90;;;;;;5129163;27;20368;-84
2021/12/27 10:46:03;;;;;;;6.05;1.45;;;16.70;99.90;;;;;;5128825;27;20373;-83
2021/12/27 10:48:39;;;;;;;5.97;1.67;;;16.70;99.90;;;;;;5129002;27;20388;-89
2021/12/27 10:51:08;;;;;;;7.68;2.00;;;16.70;99.90;;;;;;5129359;27;20376;-84
2021/12/27 10:53:55;;;;;;;7.93;1.60;;;16.70;99.90;;;;;;5127942;27;20388;-83
2021/12/27 10:56:24;;;;;;;7.80;1.73;;;16.70;99.90;;;;;;5128760;27;20894;-86
2021/12/27 10:58:57;;;;;;;7.38;1.83;;;16.80;99.90;;;;;;5129248;27;20377;-84
2021/12/27 11:01:27;;;;;;;8.02;1.83;;;16.80;99.90;;;;;;5128654;27;20396;-83
2021/12/27 11:03:59;;;;;;;6.30;1.80;;;16.70;99.90;;;;;;5127892;27;20380;-84
2021/12/27 11:06:28;;;;;;;7.03;1.70;;;16.70;99.90;;;;;;5128874;27;20882;-84
2021/12/27 11:08:58;;;;;;;6.97;1.63;;;16.70;99.90;;;;;;5128952;27;20384;-84
2021/12/27 11:11:27;;;;;;;8.52;1.88;;;16.70;99.90;;;;;;5127593;27;20377;-84
2021/12/27 11:13:57;;;;;;;8.43;1.80;;;16.70;99.90;;;;;;5128173;27;20477;-85
2021/12/27 11:16:26;;;;;;;5.65;1.73;;;16.80;99.90;;;;;;5128645;27;20451;-85
2021/12/27 11:18:56;;;;;;;7.28;1.70;;;16.80;99.90;;;;;;5128168;27;20457;-85
2021/12/27 11:21:31;;;;;;;6.80;1.70;;;16.80;99.90;;;;;;5129111;27;20966;-83
2021/12/27 11:24:00;;;;;;;5.32;1.55;;;16.80;99.90;;;;;;5127703;27;20770;-86
2021/12/27 11:26:33;;;;;;;5.97;1.60;;;16.80;99.90;;;;;;5128467;27;20471;-85
2021/12/27 11:29:20;;;;;;;5.57;1.50;;;16.70;99.90;;;;;;5127927;27;20377;-86
2021/12/27 11:31:55;;;;;;;6.45;2.00;;;16.80;99.90;;;;;;5128164;27;20373;-85
2021/12/27 11:34:23;;;;;;;7.10;2.00;;;16.80;99.90;;;;;;5127551;27;20369;-85
2021/12/27 11:36:58;;;;;;;7.33;1.93;;;16.80;99.90;;;;;;5127322;27;20395;-85
2021/12/27 11:39:32;;;;;;;5.63;1.80;;;16.70;99.90;;;;;;5116967;27;20713;-86
2021/12/27 11:42:05;;;;;;;6.37;1.90;;;16.70;99.90;;;;;;5128359;27;20412;-86
2021/12/27 11:44:56;;;;;;;7.33;1.73;;;16.60;99.90;;;;;;5128366;27;20418;-87
2021/12/27 11:47:29;;;;;;;5.28;1.27;;;16.60;99.90;;;;;;5127543;27;20397;-88
2021/12/27 11:50:03;;;;;;;6.68;1.40;;;16.60;99.90;;;;;;5109814;27;20483;-87
2021/12/27 11:52:33;;;;;;;6.53;1.40;;;16.50;99.90;;;;;;5128329;27;20383;-85
2021/12/27 11:55:05;;;;;;;5.53;1.43;;;16.50;99.90;;;;;;5128381;27;20377;-86
2021/12/27 11:57:47;;;;;;;4.10;1.30;;;16.40;99.90;;;;;;5127998;27;20365;-85
2021/12/27 12:00:17;;;;;;;6.53;1.50;;;16.40;99.90;;;;;;5127394;27;20430;-85
2021/12/27 12:02:47;;;;;;;6.47;1.40;;;16.30;99.90;;;;;;5127484;27;20384;-87
2021/12/27 12:05:45;;;;;;;6.50;1.40;;;16.30;99.90;;;;;;5127907;27;20410;-86
2021/12/27 12:08:18;;;;;;;7.88;1.40;;;16.30;99.90;;;;;;5120745;27;20810;-86
2021/12/27 12:11:06;;;;;;;6.32;1.50;;;16.30;99.90;;;;;;5107368;28;20371;-87
2021/12/27 12:13:41;;;;;;;7.47;1.52;;;16.40;99.90;;;;;;5115391;27;20430;-87
2021/12/27 12:16:28;;;;;;;8.07;1.60;;;16.40;99.90;;;;;;5107023;28;20367;-87
2021/12/27 12:18:55;;;;;;;6.25;1.35;;;16.40;99.90;;;;;;5107162;28;20363;-86
2021/12/27 12:21:44;;;;;;;7.75;1.60;;;16.40;99.90;;;;;;5107029;28;20884;-87
2021/12/27 12:24:19;;;;;;;10.17;1.83;;;16.40;99.90;;;;;;5125961;27;20377;-84
2021/12/27 12:26:58;;;;;;;7.43;1.60;;;16.30;99.90;;;;;;5127514;27;20480;-87
2021/12/27 12:29:29;;;;;;;8.67;1.70;;;16.30;99.90;;;;;;5106910;28;20445;-87
2021/12/27 12:32:05;;;;;;;8.13;1.75;;;16.30;99.90;;;;;;5106677;28;20793;-87
2021/12/27 12:34:33;;;;;;;6.80;1.50;;;16.20;99.90;;;;;;5125607;28;20459;-87
2021/12/27 12:37:15;;;;;;;9.73;1.80;;;16.20;99.90;;;;;;5127677;27;20423;-88
2021/12/27 12:39:50;;;;;;;10.05;1.85;;;16.20;99.90;;;;;;5127666;27;20421;-87
2021/12/27 12:42:19;;;;;;;8.55;1.70;;;16.20;99.90;;;;;;5129481;28;20420;-87
2021/12/27 12:44:59;;;;;;;8.55;1.80;;;16.20;99.90;;;;;;5127792;28;20373;-87
2021/12/27 12:47:29;;;;;;;8.38;1.60;;;16.20;99.90;;;;;;5109269;28;20483;-87
2021/12/27 12:49:56;;;;;;;6.60;1.70;;;16.20;99.90;;;;;;5127626;28;20365;-86
2021/12/27 12:52:23;;;;;;;10.03;1.80;;;16.20;99.90;;;;;;5126962;27;20422;-86
2021/12/27 12:54:50;;;;;;;6.15;1.67;;;16.10;99.90;;;;;;5127350;27;20377;-85
2021/12/27 12:57:22;;;;;;;8.75;1.70;;;16.10;99.90;;;;;;5127041;27;20815;-85
2021/12/27 12:59:57;;;;;;;7.20;1.70;;;16.10;99.90;;;;;;5126402;27;20408;-86